createdAt,value
2019-01-18T00:00:49.959Z,1.10
2019-01-18T00:03:17.162Z,1.10
2019-01-18T00:05:47.276Z,1.10
2019-01-18T00:08:14.590Z,0.83
2019-01-18T00:10:41.799Z,1.07
2019-01-18T00:13:09.124Z,1.13
2019-01-18T00:15:36.607Z,1.23
2019-01-18T00:18:06.243Z,1.10
2019-01-18T00:20:33.488Z,1.10
2019-01-18T00:23:00.995Z,0.90
2019-01-18T00:25:28.393Z,1.07
2019-01-18T00:27:55.819Z,0.90
2019-01-18T00:30:23.168Z,1.07
2019-01-18T00:32:50.408Z,1.00
2019-01-18T00:35:17.679Z,0.87
2019-01-18T00:37:46.935Z,0.80
2019-01-18T00:40:14.388Z,1.10
2019-01-18T00:42:41.610Z,0.80
2019-01-18T00:45:10.867Z,1.17
2019-01-18T00:47:40.509Z,1.03
2019-01-18T00:50:10.146Z,0.90
2019-01-18T00:52:37.435Z,1.10
2019-01-18T00:55:05.191Z,0.90
2019-01-18T00:57:32.799Z,1.00
2019-01-18T01:00:00.017Z,0.90
2019-01-18T01:02:27.361Z,1.03
2019-01-18T01:04:54.664Z,1.07
2019-01-18T01:07:21.894Z,1.00
2019-01-18T01:09:49.104Z,0.90
2019-01-18T01:12:16.557Z,1.20
2019-01-18T01:14:44.152Z,0.90
2019-01-18T01:17:11.474Z,1.10
2019-01-18T01:19:38.685Z,0.90
2019-01-18T01:22:06.179Z,1.23
2019-01-18T01:24:33.446Z,0.73
2019-01-18T01:27:00.650Z,0.80
2019-01-18T01:29:27.867Z,0.90
2019-01-18T01:31:55.593Z,1.00
2019-01-18T01:34:22.951Z,1.17
2019-01-18T01:36:50.173Z,0.80
2019-01-18T01:39:18.624Z,1.37
2019-01-18T01:41:46.059Z,1.03
2019-01-18T01:44:13.384Z,1.00
2019-01-18T01:46:40.683Z,0.93
2019-01-18T01:49:07.891Z,0.90
2019-01-18T01:51:35.115Z,0.97
2019-01-18T01:54:02.630Z,0.87
2019-01-18T01:56:29.866Z,0.80
2019-01-18T01:58:57.191Z,0.80
2019-01-18T02:01:24.412Z,1.30
2019-01-18T02:03:51.660Z,1.03
2019-01-18T02:06:18.961Z,1.50
2019-01-18T02:08:46.163Z,1.80
2019-01-18T02:11:13.458Z,1.37
2019-01-18T02:13:40.669Z,2.20
2019-01-18T02:16:07.929Z,2.80
2019-01-18T02:18:35.131Z,2.70
2019-01-18T02:21:02.516Z,2.33
2019-01-18T02:23:30.266Z,3.07
2019-01-18T02:25:57.484Z,2.20
2019-01-18T02:28:25.001Z,2.43
2019-01-18T02:30:52.241Z,2.10
2019-01-18T02:33:19.502Z,2.20
2019-01-18T02:35:48.780Z,1.93
2019-01-18T02:38:16.344Z,2.30
2019-01-18T02:40:43.602Z,2.00
2019-01-18T02:43:11.199Z,1.70
2019-01-18T02:45:38.752Z,1.63
2019-01-18T02:48:05.944Z,1.70
2019-01-18T02:50:33.595Z,1.87
2019-01-18T02:53:00.867Z,1.50
2019-01-18T02:55:29.140Z,1.03
2019-01-18T02:57:56.472Z,1.00
2019-01-18T03:00:23.744Z,0.90
2019-01-18T03:02:52.151Z,0.73
2019-01-18T03:05:24.497Z,1.10
2019-01-18T03:07:52.120Z,1.00
2019-01-18T03:10:21.941Z,0.90
2019-01-18T03:12:49.165Z,1.33
2019-01-18T03:15:16.522Z,1.07
2019-01-18T03:17:44.769Z,1.07
2019-01-18T03:20:12.923Z,0.87
2019-01-18T03:22:40.180Z,0.80
2019-01-18T03:25:10.196Z,0.93
2019-01-18T03:27:37.743Z,0.90
2019-01-18T03:30:18.211Z,0.90
2019-01-18T03:32:36.302Z,0.90
2019-01-18T03:35:04.023Z,1.10
2019-01-18T03:37:31.278Z,1.00
2019-01-18T03:39:58.555Z,0.80
2019-01-18T03:42:25.797Z,1.07
2019-01-18T03:44:53.228Z,0.80
2019-01-18T03:47:20.466Z,1.87
2019-01-18T03:49:47.764Z,0.90
2019-01-18T03:52:14.965Z,0.90
2019-01-18T03:54:42.239Z,1.00
2019-01-18T03:57:09.554Z,1.00
2019-01-18T03:59:36.790Z,1.00
2019-01-18T04:02:04.014Z,0.90
2019-01-18T04:04:31.438Z,1.00
2019-01-18T04:06:58.657Z,1.10
2019-01-18T04:09:25.870Z,1.10
2019-01-18T04:11:53.266Z,1.13
2019-01-18T04:14:20.512Z,1.33
2019-01-18T04:16:47.875Z,1.20
2019-01-18T04:19:15.140Z,1.00
2019-01-18T04:21:42.720Z,1.00
2019-01-18T04:24:10.181Z,1.00
2019-01-18T04:26:37.404Z,1.40
2019-01-18T04:29:04.636Z,1.10
2019-01-18T04:31:31.882Z,0.90
2019-01-18T04:33:59.096Z,1.00
2019-01-18T04:36:26.412Z,1.10
2019-01-18T04:38:56.434Z,1.30
2019-01-18T04:41:23.754Z,1.07
2019-01-18T04:43:51.114Z,1.20
2019-01-18T04:46:18.319Z,1.10
2019-01-18T04:48:45.673Z,1.23
2019-01-18T04:51:12.919Z,1.50
2019-01-18T04:53:40.692Z,0.97
2019-01-18T04:56:07.936Z,1.30
2019-01-18T04:58:35.204Z,1.20
2019-01-18T05:01:02.439Z,1.43
2019-01-18T05:03:29.929Z,1.40
2019-01-18T05:05:57.154Z,1.20
2019-01-18T05:08:24.718Z,1.80
2019-01-18T05:10:52.208Z,1.07
2019-01-18T05:13:19.490Z,1.40
2019-01-18T05:15:46.826Z,1.10
2019-01-18T05:18:14.050Z,1.40
2019-01-18T05:20:41.331Z,1.10
2019-01-18T05:23:08.574Z,1.63
2019-01-18T05:25:35.805Z,1.10
2019-01-18T05:28:03.136Z,1.03
2019-01-18T05:30:30.416Z,0.90
2019-01-18T05:32:57.891Z,1.30
2019-01-18T05:35:25.339Z,1.10
2019-01-18T05:37:52.712Z,1.63
2019-01-18T05:40:20.039Z,1.40
2019-01-18T05:42:47.725Z,1.13
2019-01-18T05:45:16.859Z,1.57
2019-01-18T05:47:44.229Z,1.20
2019-01-18T05:50:16.892Z,1.40
2019-01-18T05:52:44.404Z,1.53
2019-01-18T05:55:11.986Z,1.30
2019-01-18T05:57:39.373Z,1.50
2019-01-18T06:00:12.135Z,1.27
2019-01-18T06:02:39.404Z,1.70
2019-01-18T06:05:09.463Z,1.43
2019-01-18T06:07:36.678Z,1.70
2019-01-18T06:10:04.948Z,1.33
2019-01-18T06:12:32.199Z,1.33
2019-01-18T06:14:59.484Z,1.43
2019-01-18T06:17:26.767Z,1.60
2019-01-18T06:19:54.116Z,1.10
2019-01-18T06:22:21.329Z,1.57
2019-01-18T06:24:48.576Z,1.10
2019-01-18T06:27:15.829Z,1.30
2019-01-18T06:29:43.397Z,1.33
2019-01-18T06:32:10.731Z,1.80
2019-01-18T06:34:37.938Z,1.30
2019-01-18T06:37:05.189Z,1.23
2019-01-18T06:39:32.419Z,1.90
2019-01-18T06:41:59.825Z,1.50
2019-01-18T06:44:27.148Z,1.43
2019-01-18T06:46:54.392Z,1.90
2019-01-18T06:49:21.755Z,2.10
2019-01-18T06:51:49.098Z,2.23
2019-01-18T06:54:16.526Z,2.60
2019-01-18T06:56:43.966Z,1.97
2019-01-18T06:59:11.348Z,2.00
2019-01-18T07:01:38.667Z,1.70
2019-01-18T07:04:06.065Z,2.60
2019-01-18T07:06:33.318Z,2.30
2019-01-18T07:09:00.566Z,1.60
2019-01-18T07:11:27.857Z,1.30
2019-01-18T07:13:55.267Z,1.73
2019-01-18T07:16:22.574Z,1.40
2019-01-18T07:18:49.891Z,1.50
2019-01-18T07:21:17.129Z,1.60
2019-01-18T07:23:47.100Z,1.20
2019-01-18T07:26:14.439Z,1.70
2019-01-18T07:28:41.689Z,1.90
2019-01-18T07:31:14.961Z,1.60
2019-01-18T07:33:38.214Z,1.87
2019-01-18T07:36:08.456Z,1.50
2019-01-18T07:38:35.678Z,1.10
2019-01-18T07:41:03.149Z,1.30
2019-01-18T07:43:30.369Z,1.20
2019-01-18T07:45:57.648Z,1.50
2019-01-18T07:48:27.120Z,1.50
2019-01-18T07:50:54.355Z,1.57
2019-01-18T07:53:21.692Z,1.40
2019-01-18T07:55:48.971Z,1.40
2019-01-18T07:58:16.178Z,1.30
2019-01-18T08:00:43.566Z,1.47
2019-01-18T08:03:11.093Z,1.30
2019-01-18T08:05:38.304Z,1.30
2019-01-18T08:08:05.791Z,1.77
2019-01-18T08:13:13.512Z,1.83
2019-01-18T08:15:40.974Z,1.50
2019-01-18T08:18:08.393Z,1.50
2019-01-18T08:20:35.652Z,1.17
2019-01-18T08:23:03.099Z,1.80
2019-01-18T08:25:30.350Z,1.37
2019-01-18T08:27:57.731Z,1.33
2019-01-18T08:30:26.833Z,1.40
2019-01-18T08:32:54.088Z,1.47
2019-01-18T08:35:22.194Z,1.90
2019-01-18T08:37:49.560Z,1.70
2019-01-18T08:40:37.584Z,1.67
2019-01-18T08:43:06.857Z,1.53
2019-01-18T08:45:37.373Z,1.37
2019-01-18T08:48:05.694Z,2.10
2019-01-18T08:50:33.051Z,1.97
2019-01-18T08:53:00.264Z,2.03
2019-01-18T08:55:27.803Z,1.73
2019-01-18T08:57:55.039Z,1.60
2019-01-18T09:00:23.811Z,1.80
2019-01-18T09:02:51.055Z,2.47
2019-01-18T09:05:21.015Z,1.57
2019-01-18T09:07:48.300Z,1.80
2019-01-18T09:10:17.285Z,1.50
2019-01-18T09:12:44.951Z,1.50
2019-01-18T09:15:12.712Z,1.60
2019-01-18T09:17:40.307Z,1.33
2019-01-18T09:20:16.778Z,1.87
2019-01-18T09:22:44.377Z,1.60
2019-01-18T09:25:11.797Z,1.50
2019-01-18T09:27:39.064Z,1.73
2019-01-18T09:30:12.083Z,1.57
2019-01-18T09:32:39.416Z,2.63
2019-01-18T09:35:08.495Z,1.90
2019-01-18T09:37:35.720Z,1.77
2019-01-18T09:40:04.807Z,2.00
2019-01-18T09:42:32.200Z,1.73
2019-01-18T09:44:59.428Z,1.80
2019-01-18T09:47:26.707Z,1.90
2019-01-18T09:49:53.925Z,1.83
2019-01-18T09:52:21.178Z,2.37
2019-01-18T09:54:48.511Z,1.80
2019-01-18T09:57:15.746Z,1.80
2019-01-18T09:59:43.397Z,2.17
2019-01-18T10:02:10.886Z,1.83
2019-01-18T10:04:38.157Z,1.80
2019-01-18T10:07:05.442Z,2.30
2019-01-18T10:09:32.904Z,1.87
2019-01-18T10:12:00.259Z,1.67
2019-01-18T10:14:27.759Z,1.80
2019-01-18T10:16:55.092Z,2.07
2019-01-18T10:19:22.807Z,1.80
2019-01-18T10:21:50.088Z,2.13
2019-01-18T10:24:17.457Z,1.77
2019-01-18T10:26:44.713Z,1.73
2019-01-18T10:29:11.982Z,1.77
2019-01-18T10:31:39.182Z,1.73
2019-01-18T10:34:06.393Z,1.73
2019-01-18T10:36:34.005Z,2.73
2019-01-18T10:39:01.211Z,1.80
2019-01-18T10:41:32.194Z,1.87
2019-01-18T10:44:05.810Z,1.50
2019-01-18T10:46:28.870Z,1.60
2019-01-18T10:48:56.132Z,1.77
2019-01-18T10:51:23.795Z,1.80
2019-01-18T10:53:54.168Z,1.97
2019-01-18T10:56:23.462Z,2.00
2019-01-18T10:58:50.707Z,1.87
2019-01-18T11:01:17.908Z,1.77
2019-01-18T11:03:45.161Z,1.73
2019-01-18T11:06:12.670Z,2.03
2019-01-18T11:08:50.636Z,1.53
2019-01-18T11:11:17.907Z,1.57
2019-01-18T11:13:45.206Z,1.90
2019-01-18T11:16:12.572Z,2.10
2019-01-18T11:18:39.835Z,1.90
2019-01-18T11:21:16.217Z,1.60
2019-01-18T11:23:44.833Z,2.23
2019-01-18T11:26:17.831Z,2.07
2019-01-18T11:28:45.054Z,2.40
2019-01-18T11:31:12.274Z,1.80
2019-01-18T11:33:39.507Z,1.57
2019-01-18T11:36:06.740Z,1.80
2019-01-18T11:38:34.028Z,1.80
2019-01-18T11:41:01.238Z,1.60
2019-01-18T11:43:28.455Z,1.63
2019-01-18T11:45:55.705Z,2.10
2019-01-18T11:48:22.940Z,1.47
2019-01-18T11:50:50.150Z,1.80
2019-01-18T11:53:17.407Z,1.63
2019-01-18T11:55:44.840Z,1.73
2019-01-18T11:58:12.080Z,1.57
2019-01-18T12:00:39.316Z,2.00
2019-01-18T12:03:06.620Z,1.47
2019-01-18T12:05:33.857Z,1.70
2019-01-18T12:08:01.397Z,1.90
2019-01-18T12:10:30.472Z,1.70
2019-01-18T12:12:57.724Z,2.17
2019-01-18T12:15:25.142Z,1.60
2019-01-18T12:17:52.397Z,1.77
2019-01-18T12:20:22.435Z,1.80
2019-01-18T12:22:49.639Z,1.37
2019-01-18T12:25:17.502Z,1.67
2019-01-18T12:27:46.164Z,1.80
2019-01-18T12:30:19.396Z,1.90
2019-01-18T12:32:49.743Z,2.13
2019-01-18T12:35:20.614Z,2.03
2019-01-18T12:37:48.172Z,2.07
2019-01-18T12:40:15.464Z,2.13
2019-01-18T12:42:42.720Z,2.37
2019-01-18T12:45:13.186Z,1.70
2019-01-18T12:47:52.401Z,2.10
2019-01-18T12:50:25.117Z,2.30
2019-01-18T12:52:52.540Z,1.90
2019-01-18T12:55:19.782Z,2.20
2019-01-18T12:57:47.011Z,1.70
2019-01-18T13:00:16.973Z,2.30
2019-01-18T13:02:44.257Z,2.60
2019-01-18T13:05:14.759Z,2.50
2019-01-18T13:07:41.999Z,2.13
2019-01-18T13:10:12.320Z,2.37
2019-01-18T13:12:38.749Z,2.07
2019-01-18T13:15:10.579Z,1.30
2019-01-18T13:17:37.815Z,0.90
2019-01-18T13:20:05.411Z,1.10
2019-01-18T13:22:32.693Z,1.13
2019-01-18T13:24:59.920Z,1.00
2019-01-18T13:27:27.133Z,0.90
2019-01-18T13:29:54.669Z,1.20
2019-01-18T13:32:21.896Z,1.17
2019-01-18T13:34:49.100Z,1.20
2019-01-18T13:37:16.349Z,1.53
2019-01-18T13:39:43.647Z,0.93
2019-01-18T13:42:10.888Z,1.07
2019-01-18T13:44:43.597Z,1.40
2019-01-18T13:47:07.300Z,1.00
2019-01-18T13:49:34.578Z,0.93
2019-01-18T13:52:02.983Z,1.10
2019-01-18T13:54:37.743Z,1.10
2019-01-18T13:57:07.551Z,1.30
2019-01-18T13:59:35.211Z,1.10
2019-01-18T14:02:03.082Z,1.10
2019-01-18T14:04:31.496Z,1.47
2019-01-18T14:06:59.070Z,1.20
2019-01-18T14:09:28.559Z,1.57
2019-01-18T14:12:07.107Z,1.90
2019-01-18T14:14:34.741Z,1.10
2019-01-18T14:17:01.972Z,1.70
2019-01-18T14:19:29.210Z,1.90
2019-01-18T14:22:03.601Z,1.27
2019-01-18T14:24:35.322Z,1.43
2019-01-18T14:27:03.685Z,1.20
2019-01-18T14:29:31.118Z,1.10
2019-01-18T14:31:58.335Z,1.00
2019-01-18T14:34:25.953Z,1.00
2019-01-18T14:36:53.149Z,1.30
2019-01-18T14:39:20.399Z,1.20
2019-01-18T14:41:47.603Z,1.10
2019-01-18T14:44:37.903Z,1.10
2019-01-18T14:47:26.331Z,1.70
2019-01-18T14:49:53.707Z,2.10
2019-01-18T14:52:20.923Z,2.93
2019-01-18T14:54:48.147Z,2.30
2019-01-18T14:57:15.400Z,1.57
2019-01-18T14:59:48.900Z,1.30
2019-01-18T15:02:17.692Z,1.40
2019-01-18T15:04:45.442Z,1.30
2019-01-18T15:07:12.785Z,1.50
2019-01-18T15:09:40.307Z,1.30
2019-01-18T15:12:07.512Z,1.30
2019-01-18T15:14:34.908Z,1.30
2019-01-18T15:17:02.153Z,1.73
2019-01-18T15:19:29.701Z,1.30
2019-01-18T15:21:56.923Z,1.03
2019-01-18T15:24:24.139Z,1.00
2019-01-18T15:26:51.395Z,1.10
2019-01-18T15:29:18.604Z,1.00
2019-01-18T15:31:45.864Z,1.43
2019-01-18T15:34:13.094Z,1.57
2019-01-18T15:36:40.363Z,1.23
2019-01-18T15:39:10.685Z,1.43
2019-01-18T15:41:38.186Z,1.53
2019-01-18T15:44:05.569Z,1.60
2019-01-18T15:46:33.021Z,2.07
2019-01-18T15:49:00.264Z,1.80
2019-01-18T15:51:27.466Z,1.90
2019-01-18T15:53:54.712Z,1.57
2019-01-18T15:56:23.016Z,1.70
2019-01-18T15:58:50.313Z,1.70
2019-01-18T16:01:17.546Z,2.00
2019-01-18T16:03:47.651Z,1.90
2019-01-18T16:06:15.132Z,1.97
2019-01-18T16:08:42.635Z,2.33
2019-01-18T16:11:09.979Z,2.03
2019-01-18T16:13:40.249Z,1.80
2019-01-18T16:16:51.803Z,1.77
2019-01-18T16:19:19.118Z,2.20
2019-01-18T16:21:49.576Z,1.60
2019-01-18T16:24:16.799Z,2.30
2019-01-18T16:26:44.031Z,1.80
2019-01-18T16:29:11.225Z,1.97
2019-01-18T16:31:38.613Z,1.73
2019-01-18T16:34:05.812Z,2.33
2019-01-18T16:36:34.172Z,1.97
2019-01-18T16:39:06.028Z,2.20
2019-01-18T16:41:44.852Z,1.63
2019-01-18T16:44:12.094Z,2.07
2019-01-18T16:46:40.717Z,2.20
2019-01-18T16:49:07.940Z,2.00
2019-01-18T16:51:35.143Z,2.17
2019-01-18T16:54:02.379Z,1.80
2019-01-18T16:56:29.631Z,2.30
2019-01-18T16:58:57.092Z,2.13
2019-01-18T17:01:24.389Z,2.10
2019-01-18T17:03:51.644Z,2.13
2019-01-18T17:06:18.865Z,1.97
2019-01-18T17:08:46.141Z,1.90
2019-01-18T17:11:13.494Z,1.80
2019-01-18T17:13:41.368Z,2.03
2019-01-18T17:16:08.931Z,2.33
2019-01-18T17:18:36.324Z,1.90
2019-01-18T17:21:03.647Z,2.10
2019-01-18T17:23:30.901Z,2.13
2019-01-18T17:26:04.632Z,2.10
2019-01-18T17:28:31.984Z,2.60
2019-01-18T17:30:59.187Z,2.33
2019-01-18T17:33:26.799Z,3.10
2019-01-18T17:36:25.330Z,3.40
2019-01-18T17:39:28.548Z,3.10
2019-01-18T17:42:18.909Z,3.43
2019-01-18T17:45:46.104Z,3.03
2019-01-18T17:48:57.121Z,3.53
2019-01-18T17:52:11.611Z,3.43
2019-01-18T17:55:11.442Z,3.00
2019-01-18T17:58:12.034Z,5.17
2019-01-18T18:01:15.993Z,3.93
2019-01-18T18:04:38.141Z,3.10
2019-01-18T18:07:38.237Z,3.50
2019-01-18T18:10:29.482Z,3.40
2019-01-18T18:13:39.220Z,2.90
2019-01-18T18:16:51.353Z,2.83
2019-01-18T18:19:55.319Z,3.23
2019-01-18T18:22:59.654Z,5.53
2019-01-18T18:26:07.750Z,8.40
2019-01-18T18:29:11.323Z,7.43
2019-01-18T18:32:14.260Z,6.30
2019-01-18T18:35:19.200Z,4.50
2019-01-18T18:38:43.310Z,4.00
2019-01-18T18:42:06.111Z,3.17
2019-01-18T18:45:33.143Z,3.60
2019-01-18T18:48:50.151Z,2.80
2019-01-18T18:51:46.048Z,3.50
2019-01-18T18:55:00.901Z,2.70
2019-01-18T18:58:09.255Z,2.37
2019-01-18T19:00:46.734Z,2.87
2019-01-18T19:03:36.654Z,3.10
2019-01-18T19:06:41.415Z,2.90
2019-01-18T19:09:27.451Z,2.70
2019-01-18T19:12:51.957Z,4.10
2019-01-18T19:15:58.072Z,3.67
2019-01-18T19:18:48.730Z,3.83
2019-01-18T19:22:05.794Z,3.57
2019-01-18T19:25:09.701Z,3.57
2019-01-18T19:28:07.029Z,4.73
2019-01-18T19:31:13.128Z,4.33
2019-01-18T19:34:11.143Z,4.97
2019-01-18T19:37:10.990Z,4.67
2019-01-18T19:40:17.359Z,4.80
2019-01-18T19:43:22.597Z,4.97
2019-01-18T19:46:40.777Z,5.87
2019-01-18T19:49:35.053Z,5.40
2019-01-18T19:52:20.758Z,6.33
2019-01-18T19:55:08.815Z,6.60
2019-01-18T19:58:08.264Z,6.63
2019-01-18T20:01:06.792Z,5.93
2019-01-18T20:04:21.784Z,7.63
2019-01-18T20:07:03.953Z,6.30
2019-01-18T20:09:46.198Z,5.73
2019-01-18T20:12:52.863Z,5.80
2019-01-18T20:15:49.939Z,9.73
2019-01-18T20:18:53.808Z,8.87
2019-01-18T20:22:05.867Z,6.53
2019-01-18T20:24:58.227Z,5.63
2019-01-18T20:28:03.402Z,5.63
2019-01-18T20:31:15.216Z,6.43
2019-01-18T20:34:27.523Z,7.30
2019-01-18T20:37:36.808Z,11.67
2019-01-18T20:40:34.871Z,11.17
2019-01-18T20:43:26.383Z,8.67
2019-01-18T20:46:47.336Z,7.37
2019-01-18T20:49:37.909Z,5.93
2019-01-18T20:53:11.201Z,5.30
2019-01-18T20:56:21.835Z,5.27
2019-01-18T20:59:17.276Z,4.73
2019-01-18T21:02:31.132Z,5.33
2019-01-18T21:05:22.090Z,5.40
2019-01-18T21:08:18.581Z,4.77
2019-01-18T21:11:20.737Z,4.90
2019-01-18T21:14:41.038Z,6.30
2019-01-18T21:18:03.854Z,4.83
2019-01-18T21:21:03.382Z,5.00
2019-01-18T21:24:15.708Z,5.53
2019-01-18T21:27:23.245Z,5.40
2019-01-18T21:30:38.395Z,4.93
2019-01-18T21:33:47.541Z,5.80
2019-01-18T21:36:53.940Z,5.70
2019-01-18T21:40:04.325Z,5.80
2019-01-18T21:43:18.300Z,6.40
2019-01-18T21:46:48.244Z,5.63
2019-01-18T21:50:02.247Z,6.03
2019-01-18T21:53:01.305Z,5.83
2019-01-18T21:56:10.120Z,6.07
2019-01-18T21:59:10.984Z,6.30
2019-01-18T22:01:52.637Z,5.97
2019-01-18T22:04:58.772Z,5.97
2019-01-18T22:08:01.987Z,6.47
2019-01-18T22:10:50.885Z,7.30
2019-01-18T22:14:08.863Z,9.13
2019-01-18T22:17:13.939Z,10.40
2019-01-18T22:20:11.451Z,9.60
2019-01-18T22:23:06.284Z,8.70
2019-01-18T22:26:08.626Z,6.97
2019-01-18T22:29:23.432Z,6.60
2019-01-18T22:32:50.651Z,6.70
2019-01-18T22:35:46.440Z,6.27
2019-01-18T22:38:37.746Z,6.40
2019-01-18T22:41:53.343Z,6.40
2019-01-18T22:44:58.309Z,5.87
2019-01-18T22:48:13.079Z,5.57
2019-01-18T22:51:33.050Z,6.23
2019-01-18T22:54:24.036Z,5.47
2019-01-18T22:57:26.240Z,6.00
2019-01-18T23:00:37.567Z,5.97
2019-01-18T23:03:31.595Z,5.60
2019-01-18T23:06:38.474Z,5.10
2019-01-18T23:09:46.960Z,6.03
2019-01-18T23:12:40.983Z,6.23
2019-01-18T23:15:49.300Z,6.60
2019-01-18T23:18:42.242Z,5.93
2019-01-18T23:21:46.959Z,6.40
2019-01-18T23:24:49.476Z,6.27
2019-01-18T23:27:45.367Z,6.17
2019-01-18T23:30:18.154Z,6.87
2019-01-18T23:33:14.360Z,5.47
2019-01-18T23:35:59.471Z,5.30
2019-01-18T23:39:07.727Z,5.10
2019-01-18T23:42:09.961Z,5.47
2019-01-18T23:45:37.272Z,6.03
2019-01-18T23:48:41.729Z,5.63
2019-01-18T23:51:50.031Z,5.53
2019-01-18T23:54:40.224Z,5.53
2019-01-18T23:57:19.990Z,5.33
